Time;durP1;ratioP1;P1;durP2;ratioP2;P2;SDS_P1;SDS_P2;PMS_P1;PMS_P2;Temp;Humidity;BMP_temperature;BMP_pressure;BME280_temperature;BME280_humidity;BME280_pressure;Samples;Min_cycle;Max_cycle;Signal;HPM_P1;HPM_P2
2021/01/30 00:00:33;;;;;;;9.65;6.65;;;;;;;8.17;69.91;98608.69;5003457;28;20050;-64
2021/01/30 00:03:01;;;;;;;8.45;6.28;;;;;;;8.11;69.70;98618.38;5006779;28;20050;-64
2021/01/30 00:05:31;;;;;;;10.00;6.57;;;;;;;8.02;69.06;98624.03;4993628;28;20058;-64
2021/01/30 00:08:01;;;;;;;11.80;7.38;;;;;;;7.93;70.09;98626.84;4993715;28;20054;-64
2021/01/30 00:10:28;;;;;;;10.23;7.25;;;;;;;7.90;70.31;98626.75;4993494;28;20058;-64
2021/01/30 00:12:55;;;;;;;9.65;8.05;;;;;;;7.84;69.60;98631.69;4992358;28;20046;-64
2021/01/30 00:15:24;;;;;;;12.38;9.52;;;;;;;7.77;70.65;98628.69;4993910;28;20061;-64
2021/01/30 00:17:53;;;;;;;11.40;9.55;;;;;;;7.66;70.65;98644.09;4993382;28;20400;-64
2021/01/30 00:20:23;;;;;;;12.88;9.38;;;;;;;7.65;70.22;98648.81;4993591;28;20050;-64
2021/01/30 00:22:50;;;;;;;;;;;;;;;7.64;70.34;98660.25;5009796;28;20062;-64
2021/01/30 00:25:19;;;;;;;15.60;10.60;;;;;;;7.56;69.77;98663.91;4993171;28;19953;-65
2021/01/30 00:27:46;;;;;;;14.38;11.38;;;;;;;7.45;70.07;98674.56;4992626;28;20053;-64
2021/01/30 00:30:16;;;;;;;18.13;12.65;;;;;;;7.39;70.70;98673.16;4993083;28;20061;-64
2021/01/30 00:32:46;;;;;;;18.35;12.00;;;;;;;7.32;70.82;98680.03;4992821;28;20061;-64
2021/01/30 00:35:15;;;;;;;17.70;12.48;;;;;;;7.25;70.97;98677.00;4993323;28;20054;-64
2021/01/30 00:37:43;;;;;;;16.63;13.00;;;;;;;7.16;70.21;98680.97;5001138;28;20046;-64
2021/01/30 00:40:11;;;;;;;18.75;12.60;;;;;;;7.06;70.43;98682.19;4992666;28;20065;-65
2021/01/30 00:42:38;;;;;;;17.77;13.23;;;;;;;6.97;70.88;98689.72;4992621;28;20483;-64
2021/01/30 00:45:11;;;;;;;16.95;12.38;;;;;;;6.82;70.75;98691.91;5000513;28;20392;-64
2021/01/30 00:47:38;;;;;;;20.55;12.75;;;;;;;6.68;71.98;98696.88;5004463;28;20062;-64
2021/01/30 00:50:08;;;;;;;19.52;13.48;;;;;;;6.67;72.05;98696.06;4979650;28;20050;-64
2021/01/30 00:52:37;;;;;;;18.40;13.02;;;;;;;6.65;72.31;98705.84;4992942;28;20061;-64
2021/01/30 00:55:06;;;;;;;20.13;13.20;;;;;;;6.56;72.11;98716.94;4993491;28;20050;-64
2021/01/30 00:57:32;;;;;;;26.33;13.52;;;;;;;6.52;72.22;98706.88;4992835;28;20057;-64
2021/01/30 00:59:59;;;;;;;19.20;13.70;;;;;;;6.47;71.85;98703.13;4993025;28;20058;-64
2021/01/30 01:02:26;;;;;;;16.50;12.20;;;;;;;6.48;72.07;98703.94;4993078;28;20401;-64
2021/01/30 01:04:53;;;;;;;17.20;12.68;;;;;;;6.43;72.33;98707.72;4996282;28;20053;-63
2021/01/30 01:07:20;;;;;;;17.02;11.60;;;;;;;6.38;71.94;98715.38;5012235;28;20064;-64
2021/01/30 01:09:47;;;;;;;14.65;11.50;;;;;;;6.34;71.83;98715.22;5012519;28;20061;-63
2021/01/30 01:12:14;;;;;;;18.52;11.90;;;;;;;6.32;71.95;98713.91;5014369;28;20054;-62
2021/01/30 01:14:41;;;;;;;17.02;11.32;;;;;;;6.29;72.14;98715.38;5015516;28;20058;-63
2021/01/30 01:17:08;;;;;;;15.00;11.15;;;;;;;6.26;72.29;98705.00;5012467;28;20066;-64
2021/01/30 01:19:34;;;;;;;17.67;11.90;;;;;;;6.19;71.35;98707.44;4996892;28;20046;-64
2021/01/30 01:22:01;;;;;;;18.67;12.15;;;;;;;6.08;71.56;98698.69;4996645;28;20065;-63
2021/01/30 01:24:28;;;;;;;18.38;12.32;;;;;;;6.04;71.83;98709.56;5003679;28;20072;-64
2021/01/30 01:26:56;;;;;;;18.55;12.23;;;;;;;5.98;72.40;98721.13;5015485;28;20061;-64
2021/01/30 01:29:23;;;;;;;18.48;11.52;;;;;;;5.89;72.10;98734.94;5016590;28;20447;-64
2021/01/30 01:31:53;;;;;;;19.10;12.43;;;;;;;5.89;72.51;98740.47;5015787;28;20498;-64
2021/01/30 01:34:22;;;;;;;17.73;11.82;;;;;;;5.89;72.88;98738.50;5016341;28;20392;-64
2021/01/30 01:36:57;;;;;;;17.88;11.65;;;;;;;5.85;71.88;98736.72;5005394;28;20057;-64
2021/01/30 01:39:25;;;;;;;18.50;10.73;;;;;;;5.79;72.23;98740.78;4995768;28;20050;-64
2021/01/30 01:41:59;;;;;;;16.77;11.05;;;;;;;5.70;71.57;98738.84;4995570;28;20065;-64
2021/01/30 01:44:26;;;;;;;15.35;11.32;;;;;;;5.69;71.24;98750.19;4997005;28;20058;-64
2021/01/30 01:46:54;;;;;;;16.05;11.20;;;;;;;5.65;70.84;98746.50;4995911;28;20387;-64
2021/01/30 01:49:27;;;;;;;14.10;10.05;;;;;;;5.59;70.63;98764.34;4995895;28;20495;-64
2021/01/30 01:52:04;;;;;;;13.10;9.73;;;;;;;5.51;70.99;98759.63;4978133;28;20054;-64
2021/01/30 01:54:32;;;;;;;14.32;9.80;;;;;;;5.51;71.11;98757.66;4991187;28;20073;-64
2021/01/30 01:57:07;;;;;;;14.00;10.40;;;;;;;5.48;71.32;98769.34;4995891;28;20054;-64
2021/01/30 01:59:37;;;;;;;14.57;10.60;;;;;;;5.48;71.35;98766.59;4996164;28;20061;-64
2021/01/30 02:02:04;;;;;;;12.93;9.30;;;;;;;5.46;70.63;98771.66;4996350;28;20480;-64
2021/01/30 02:04:32;;;;;;;12.70;9.75;;;;;;;5.47;70.93;98767.72;4995616;28;20062;-64
2021/01/30 02:07:04;;;;;;;14.20;8.90;;;;;;;5.50;70.74;98772.59;4995321;28;20054;-64
2021/01/30 02:09:33;;;;;;;11.65;9.60;;;;;;;5.51;70.76;98774.25;5011419;28;20054;-64
2021/01/30 02:12:05;;;;;;;11.18;8.90;;;;;;;5.54;70.48;98773.56;5015260;28;20062;-64
2021/01/30 02:14:37;;;;;;;15.15;9.27;;;;;;;5.51;70.18;98778.97;4994962;28;20058;-64
2021/01/30 02:17:18;;;;;;;12.40;8.85;;;;;;;5.50;69.25;98767.06;4992839;28;20057;-64
2021/01/30 02:20:27;;;;;;;12.63;9.98;;;;;;;5.41;69.25;98791.09;4990970;28;20042;-64
2021/01/30 02:23:28;;;;;;;14.07;9.70;;;;;;;5.33;68.13;98778.91;4966009;28;20058;-64
2021/01/30 02:26:15;;;;;;;13.00;9.85;;;;;;;5.33;68.88;98787.19;4993655;28;20054;-64
2021/01/30 02:28:54;;;;;;;14.15;10.50;;;;;;;5.33;69.02;98791.91;4992963;28;20471;-65
2021/01/30 02:31:41;;;;;;;13.57;10.63;;;;;;;5.34;69.12;98799.06;4992922;28;20057;-64
2021/01/30 02:34:23;;;;;;;17.52;12.52;;;;;;;5.33;68.84;98794.66;4992350;28;20502;-64
2021/01/30 02:36:55;;;;;;;17.65;11.82;;;;;;;5.31;69.75;98794.16;4995220;28;20073;-64
2021/01/30 02:39:27;;;;;;;22.00;14.43;;;;;;;5.26;70.12;98804.22;4991902;28;20400;-64
2021/01/30 02:42:03;;;;;;;22.77;14.65;;;;;;;5.18;70.18;98802.25;4994272;28;20507;-64
2021/01/30 02:44:33;;;;;;;23.00;15.13;;;;;;;5.16;70.71;98804.50;4994624;28;20411;-64
2021/01/30 02:47:00;;;;;;;;;;;;;;;5.14;71.06;98809.53;4995962;28;20061;-64
2021/01/30 02:49:32;;;;;;;29.15;18.27;;;;;;;5.11;71.71;98814.91;4995536;28;19929;-64
2021/01/30 02:52:10;;;;;;;28.55;17.02;;;;;;;5.07;71.85;98820.25;4994235;28;20054;-64
2021/01/30 02:54:40;;;;;;;28.02;18.75;;;;;;;5.01;72.34;98822.31;4993910;28;20059;-64
2021/01/30 02:57:09;;;;;;;30.17;18.48;;;;;;;4.99;72.46;98821.00;4993789;28;20065;-64
2021/01/30 02:59:41;;;;;;;28.25;18.73;;;;;;;4.99;72.62;98829.28;4993770;28;20057;-64
2021/01/30 03:02:08;;;;;;;27.05;17.52;;;;;;;4.97;72.42;98834.31;4993636;28;20104;-64
2021/01/30 03:04:37;;;;;;;23.63;15.23;;;;;;;4.98;72.24;98822.16;4995553;28;20046;-64
2021/01/30 03:07:47;;;;;;;21.90;13.80;;;;;;;5.01;72.41;98827.03;4990774;28;20054;-64
2021/01/30 03:10:22;;;;;;;25.05;14.98;;;;;;;4.94;72.76;98834.97;4989521;28;20412;-64
2021/01/30 03:12:59;;;;;;;23.48;14.63;;;;;;;4.88;72.51;98839.78;4986377;28;20055;-64
2021/01/30 03:15:32;;;;;;;23.98;14.48;;;;;;;4.82;72.13;98839.09;4993497;28;20050;-63
2021/01/30 03:18:06;;;;;;;19.65;13.13;;;;;;;4.77;72.22;98833.72;4996001;28;20050;-64
2021/01/30 03:20:37;;;;;;;20.52;13.20;;;;;;;4.74;72.42;98837.09;4992557;28;20051;-64
2021/01/30 03:23:08;;;;;;;19.50;12.75;;;;;;;4.68;72.60;98841.13;4992832;28;20042;-64
2021/01/30 03:25:39;;;;;;;24.35;15.55;;;;;;;4.57;72.23;98853.56;4995128;28;20395;-63
2021/01/30 03:28:06;;;;;;;24.83;16.77;;;;;;;4.45;72.55;98854.94;4991905;28;20069;-63
2021/01/30 03:30:34;;;;;;;26.48;16.40;;;;;;;4.27;72.67;98859.50;4994357;28;20054;-64
2021/01/30 03:33:02;;;;;;;30.27;18.58;;;;;;;4.13;73.53;98871.72;4992278;28;20061;-63
2021/01/30 03:35:28;;;;;;;27.90;17.80;;;;;;;4.01;73.46;98861.22;4992215;28;20057;-63
2021/01/30 03:37:56;;;;;;;25.15;16.40;;;;;;;3.92;73.91;98858.41;4993180;28;20392;-63
2021/01/30 03:40:24;;;;;;;27.92;16.40;;;;;;;3.89;74.57;98863.72;4998229;28;20061;-63
2021/01/30 03:42:51;;;;;;;27.75;17.10;;;;;;;3.86;74.84;98867.91;4992478;28;20054;-63
2021/01/30 03:45:24;;;;;;;27.88;16.85;;;;;;;3.79;74.39;98876.59;4992730;28;20431;-63
2021/01/30 03:47:51;;;;;;;25.55;16.95;;;;;;;3.75;74.61;98878.31;4992129;28;20073;-63
2021/01/30 03:50:26;;;;;;;31.15;20.08;;;;;;;3.77;74.50;98883.53;5003260;28;20077;-63
2021/01/30 03:52:53;;;;;;;30.65;19.08;;;;;;;3.77;74.65;98886.28;4994584;28;20053;-63
2021/01/30 03:55:21;;;;;;;25.98;17.83;;;;;;;3.76;74.97;98879.97;4992159;28;20054;-63
2021/01/30 03:57:49;;;;;;;27.13;17.83;;;;;;;3.78;74.54;98890.66;4992940;28;20471;-64
2021/01/30 04:00:22;;;;;;;28.15;18.10;;;;;;;3.75;74.13;98894.03;4992813;28;20061;-63
2021/01/30 04:02:50;;;;;;;28.65;19.23;;;;;;;3.73;74.78;98894.34;4984193;28;20399;-63
2021/01/30 04:05:18;;;;;;;26.27;17.80;;;;;;;3.76;74.20;98898.41;4992265;28;20415;-63
2021/01/30 04:07:47;;;;;;;25.55;17.27;;;;;;;3.76;74.41;98884.63;4992876;28;20050;-64
2021/01/30 04:10:19;;;;;;;25.77;18.08;;;;;;;3.77;74.21;98898.09;4994309;28;20057;-63
2021/01/30 04:12:46;;;;;;;23.52;16.63;;;;;;;3.78;74.29;98901.66;4992410;28;20053;-63
2021/01/30 04:15:15;;;;;;;22.95;17.13;;;;;;;3.78;73.45;98902.50;4992658;28;20054;-64
2021/01/30 04:17:42;;;;;;;24.52;17.58;;;;;;;3.83;73.46;98898.81;4992684;28;20511;-64
2021/01/30 04:20:11;;;;;;;24.50;17.02;;;;;;;3.84;73.64;98900.44;4993797;28;20058;-64
2021/01/30 04:22:37;;;;;;;23.55;16.42;;;;;;;3.81;73.29;98892.81;5004634;28;20057;-64
2021/01/30 04:25:06;;;;;;;24.85;18.98;;;;;;;3.84;72.93;98892.19;4991966;28;20385;-64
2021/01/30 04:27:33;;;;;;;25.13;17.90;;;;;;;3.83;72.69;98899.63;4993092;28;20480;-64
2021/01/30 04:30:00;;;;;;;24.88;17.60;;;;;;;3.83;72.67;98891.38;4991068;28;20053;-63
2021/01/30 04:32:28;;;;;;;25.45;17.88;;;;;;;3.84;71.68;98905.94;4977969;28;20058;-63
2021/01/30 04:34:55;;;;;;;25.08;18.27;;;;;;;3.82;72.70;98895.25;4990264;28;20415;-63
2021/01/30 04:37:21;;;;;;;26.98;18.55;;;;;;;3.83;73.15;98893.31;5003943;28;20050;-63
2021/01/30 04:39:48;;;;;;;25.67;17.90;;;;;;;3.83;73.10;98893.31;5003215;28;20483;-63
2021/01/30 04:42:22;;;;;;;23.15;15.73;;;;;;;3.83;71.96;98888.63;4992705;28;20050;-63
2021/01/30 04:44:56;;;;;;;23.02;16.45;;;;;;;3.82;72.49;98891.66;4992453;28;20062;-63
2021/01/30 04:47:38;;;;;;;25.48;17.85;;;;;;;3.78;72.50;98896.16;4995393;28;20051;-62
2021/01/30 04:50:11;;;;;;;27.17;18.23;;;;;;;3.79;72.18;98909.63;4996155;28;20051;-63
2021/01/30 04:52:48;;;;;;;27.65;18.23;;;;;;;3.76;72.38;98921.28;4996594;28;20054;-62
2021/01/30 04:55:30;;;;;;;24.02;17.27;;;;;;;3.77;72.17;98911.88;4995644;28;20472;-62
2021/01/30 04:58:04;;;;;;;22.13;16.20;;;;;;;3.75;71.56;98903.09;4994087;28;20062;-63
2021/01/30 05:00:40;;;;;;;26.77;18.15;;;;;;;3.75;72.21;98902.31;4994817;28;20049;-62
2021/01/30 05:03:19;;;;;;;25.67;17.88;;;;;;;3.76;71.83;98893.75;4989287;28;20065;-63
2021/01/30 05:05:50;;;;;;;26.15;18.98;;;;;;;3.76;71.44;98896.50;4998569;28;20077;-63
2021/01/30 05:08:26;;;;;;;27.70;18.90;;;;;;;3.69;70.73;98898.03;5000220;28;20060;-63
2021/01/30 05:10:58;;;;;;;28.85;19.65;;;;;;;3.73;72.13;98904.53;4995684;28;20050;-63
2021/01/30 05:13:29;;;;;;;28.42;18.88;;;;;;;3.69;71.78;98912.59;4993955;28;20050;-63
2021/01/30 05:15:59;;;;;;;22.15;16.30;;;;;;;3.69;70.90;98904.34;4994190;28;20484;-63
2021/01/30 05:18:29;;;;;;;22.05;16.13;;;;;;;3.70;71.25;98910.69;4994207;28;20419;-63
2021/01/30 05:21:03;;;;;;;21.20;15.32;;;;;;;3.68;71.03;98902.72;4996687;28;20348;-63
2021/01/30 05:23:34;;;;;;;22.95;15.18;;;;;;;3.69;70.99;98898.03;4996420;28;20441;-63
2021/01/30 05:26:09;;;;;;;21.63;15.57;;;;;;;3.70;71.04;98896.91;4996335;28;20050;-63
2021/01/30 05:28:42;;;;;;;20.85;14.68;;;;;;;3.71;71.20;98901.28;4995084;28;20050;-63
2021/01/30 05:31:22;;;;;;;19.58;14.45;;;;;;;3.72;70.52;98902.94;4994801;28;20050;-63
2021/01/30 05:34:06;;;;;;;19.73;14.13;;;;;;;3.69;70.28;98909.03;4976599;28;20391;-63
2021/01/30 05:36:39;;;;;;;19.98;13.88;;;;;;;3.69;70.87;98907.09;4994257;28;20419;-63
2021/01/30 05:39:19;;;;;;;17.85;13.45;;;;;;;3.70;70.35;98910.69;4998438;28;20069;-63
2021/01/30 05:41:52;;;;;;;;;;;;;;;3.67;70.33;98906.59;4980285;28;20061;-63
2021/01/30 05:44:27;;;;;;;15.80;12.45;;;;;;;3.64;70.58;98899.75;4975374;28;19922;-62
2021/01/30 05:46:55;;;;;;;16.98;12.93;;;;;;;3.66;70.22;98900.25;4975574;28;20051;-63
2021/01/30 05:49:31;;;;;;;17.80;13.25;;;;;;;3.70;70.49;98900.47;4974675;28;20412;-63
2021/01/30 05:52:04;;;;;;;19.02;13.98;;;;;;;3.67;69.95;98898.31;4969907;28;20069;-63
2021/01/30 05:54:31;;;;;;;17.75;13.30;;;;;;;3.68;69.81;98899.16;4974090;28;20058;-63
2021/01/30 05:56:58;;;;;;;17.70;12.52;;;;;;;3.68;70.41;98901.91;4990211;28;20077;-63
2021/01/30 05:59:27;;;;;;;15.90;12.20;;;;;;;3.69;69.90;98900.78;4974119;28;20078;-63
2021/01/30 06:02:12;;;;;;;16.88;13.27;;;;;;;3.70;70.72;98897.72;4975697;28;20058;-62
2021/01/30 06:04:40;;;;;;;15.45;11.68;;;;;;;3.68;69.32;98899.16;4973892;28;20053;-63
2021/01/30 06:07:22;;;;;;;14.77;11.55;;;;;;;3.62;69.65;98888.22;4973734;28;20070;-63
2021/01/30 06:09:50;;;;;;;13.20;10.30;;;;;;;3.58;69.95;98900.97;4994500;28;20415;-63
2021/01/30 06:12:24;;;;;;;12.10;9.57;;;;;;;3.61;69.44;98913.31;4979394;28;20401;-63
2021/01/30 06:14:52;;;;;;;10.77;9.30;;;;;;;3.62;69.10;98918.53;4974651;28;20055;-62
2021/01/30 06:17:33;;;;;;;12.65;9.55;;;;;;;3.64;69.42;98927.28;4974558;28;20168;-63
2021/01/30 06:20:15;;;;;;;11.45;9.55;;;;;;;3.62;69.17;98925.97;4975290;28;20484;-63
2021/01/30 06:22:42;;;;;;;10.70;9.05;;;;;;;3.61;68.75;98929.84;4973386;28;20058;-63
2021/01/30 06:25:24;;;;;;;10.80;9.20;;;;;;;3.64;68.88;98932.00;4980739;28;20416;-64
2021/01/30 06:27:55;;;;;;;11.15;8.95;;;;;;;3.64;69.43;98934.75;4974529;28;20058;-63
2021/01/30 06:30:32;;;;;;;10.10;8.50;;;;;;;3.64;69.07;98924.53;4974269;28;20073;-63
2021/01/30 06:33:01;;;;;;;9.23;8.23;;;;;;;3.63;68.43;98925.69;4974425;28;20051;-62
2021/01/30 06:35:35;;;;;;;9.07;8.07;;;;;;;3.60;68.35;98929.03;4975554;28;20066;-63
2021/01/30 06:38:13;;;;;;;9.40;7.85;;;;;;;3.60;67.69;98918.00;4977547;28;20050;-62
2021/01/30 06:40:54;;;;;;;9.05;7.93;;;;;;;3.60;68.56;98915.25;4990715;28;20062;-63
2021/01/30 06:43:30;;;;;;;7.75;6.95;;;;;;;3.58;67.12;98920.25;4992534;28;20121;-62
2021/01/30 06:46:08;;;;;;;9.02;7.40;;;;;;;3.55;68.30;98920.88;4993524;28;20061;-63
2021/01/30 06:48:39;;;;;;;8.60;7.43;;;;;;;3.51;68.22;98925.38;4993809;28;20058;-63
2021/01/30 06:51:29;;;;;;;8.43;7.50;;;;;;;3.49;67.87;98922.09;4992752;28;20552;-63
2021/01/30 06:54:14;;;;;;;8.43;7.53;;;;;;;3.45;68.18;98926.59;4992578;28;20492;-63
2021/01/30 06:56:43;;;;;;;7.93;7.05;;;;;;;3.41;68.01;98928.31;4993692;28;20160;-63
2021/01/30 06:59:15;;;;;;;8.55;6.93;;;;;;;3.42;68.28;98932.69;4992982;28;20050;-63
2021/01/30 07:01:47;;;;;;;7.20;6.43;;;;;;;3.41;68.17;98937.38;4992100;28;20046;-63
2021/01/30 07:05:01;;;;;;;9.02;7.93;;;;;;;3.40;67.93;98940.44;4990780;28;20046;-63
2021/01/30 07:07:36;;;;;;;6.78;5.93;;;;;;;3.37;68.65;98947.38;4947684;28;20058;-63
2021/01/30 07:10:14;;;;;;;7.32;6.63;;;;;;;3.39;68.77;98950.63;4985923;28;20053;-63
2021/01/30 07:12:53;;;;;;;7.25;6.30;;;;;;;3.38;68.34;98943.50;4993303;28;20054;-63
2021/01/30 07:15:25;;;;;;;7.82;6.65;;;;;;;3.39;67.01;98947.06;4993319;28;20054;-63
2021/01/30 07:18:20;;;;;;;7.30;6.60;;;;;;;3.41;66.89;98948.38;4992734;28;20050;-63
2021/01/30 07:21:01;;;;;;;7.38;6.35;;;;;;;3.41;66.78;98942.06;4993134;28;20046;-63
2021/01/30 07:23:35;;;;;;;8.18;7.25;;;;;;;3.33;66.35;98946.34;4994405;28;20065;-63
2021/01/30 07:26:06;;;;;;;9.20;7.82;;;;;;;3.30;66.71;98960.72;4994327;28;20080;-61
2021/01/30 07:28:38;;;;;;;9.05;7.47;;;;;;;3.30;67.11;98965.38;4993399;28;20120;-63
2021/01/30 07:31:12;;;;;;;8.25;7.32;;;;;;;3.33;66.88;98962.03;4993669;28;20061;-63
2021/01/30 07:33:49;;;;;;;8.93;7.55;;;;;;;3.35;67.15;98957.06;4990366;28;20120;-63
2021/01/30 07:36:21;;;;;;;8.98;6.90;;;;;;;3.39;66.92;98966.34;4992400;28;20484;-63
2021/01/30 07:38:56;;;;;;;8.23;7.35;;;;;;;3.38;67.53;98970.19;4995530;28;20069;-62
2021/01/30 07:41:36;;;;;;;8.80;7.28;;;;;;;3.42;67.84;98971.22;4994551;28;20050;-63
2021/01/30 07:44:10;;;;;;;7.72;6.63;;;;;;;3.44;67.35;98974.47;4972090;28;20481;-63
2021/01/30 07:46:41;;;;;;;7.60;6.75;;;;;;;3.35;66.87;98960.63;4975000;28;20059;-61
2021/01/30 07:49:13;;;;;;;8.10;7.25;;;;;;;3.40;67.50;98965.19;4975002;28;20062;-63
2021/01/30 07:51:51;;;;;;;8.77;7.57;;;;;;;3.45;67.29;98954.09;4975175;28;20419;-62
2021/01/30 07:54:19;;;;;;;8.93;7.18;;;;;;;3.45;67.13;98954.91;4985697;28;20415;-63
2021/01/30 07:57:09;;;;;;;8.23;6.95;;;;;;;3.50;66.74;98953.19;4975626;28;20069;-63
2021/01/30 07:59:45;;;;;;;9.80;7.13;;;;;;;3.49;68.11;98949.63;4975436;28;20476;-62
2021/01/30 08:02:54;;;;;;;8.07;7.13;;;;;;;3.54;68.12;98952.25;4990603;28;20053;-63
2021/01/30 08:05:36;;;;;;;7.60;6.80;;;;;;;3.58;67.69;98939.53;4993744;28;20069;-63
2021/01/30 08:08:15;;;;;;;7.68;6.88;;;;;;;3.62;66.99;98937.78;4993595;28;20069;-63
2021/01/30 08:10:55;;;;;;;9.43;7.88;;;;;;;3.57;66.42;98943.41;4975921;28;20062;-63
2021/01/30 08:13:35;;;;;;;7.50;6.07;;;;;;;3.60;65.82;98934.53;4974352;28;20055;-63
2021/01/30 08:16:23;;;;;;;8.68;6.80;;;;;;;3.61;66.26;98930.66;4974689;28;20046;-63
2021/01/30 08:18:53;;;;;;;7.82;6.78;;;;;;;3.65;66.31;98941.88;4989390;28;20054;-63
2021/01/30 08:21:28;;;;;;;6.80;5.97;;;;;;;3.65;66.07;98956.47;4992441;28;20055;-63
2021/01/30 08:24:08;;;;;;;7.00;5.65;;;;;;;3.64;64.56;98956.75;4996629;28;20157;-63
2021/01/30 08:26:40;;;;;;;6.65;5.82;;;;;;;3.60;65.89;98948.28;4995806;28;20058;-63
2021/01/30 08:29:17;;;;;;;6.10;5.43;;;;;;;3.57;63.67;98948.09;4968119;28;20050;-63
2021/01/30 08:31:47;;;;;;;6.20;5.32;;;;;;;3.56;64.89;98944.53;4976772;28;20043;-63
2021/01/30 08:34:33;;;;;;;6.03;5.15;;;;;;;3.44;63.97;98957.97;4972431;28;20061;-62
2021/01/30 08:37:02;;;;;;;5.95;4.97;;;;;;;3.44;65.25;98967.06;4976276;28;20065;-62
2021/01/30 08:39:32;;;;;;;6.30;5.63;;;;;;;3.35;65.05;98965.31;4990321;28;20061;-63
2021/01/30 08:42:04;;;;;;;6.95;6.00;;;;;;;3.27;65.37;98952.25;4995807;28;20060;-61
2021/01/30 08:44:51;;;;;;;6.32;5.38;;;;;;;3.27;65.54;98955.81;4994236;28;20054;-62
2021/01/30 08:47:22;;;;;;;7.45;6.38;;;;;;;3.32;65.14;98943.88;4996857;28;20058;-62
2021/01/30 08:50:09;;;;;;;6.75;5.40;;;;;;;3.35;65.23;98948.78;5012603;28;20054;-63
2021/01/30 08:52:46;;;;;;;8.43;6.35;;;;;;;3.29;66.40;98950.00;5007626;28;20407;-63
2021/01/30 08:55:53;;;;;;;9.13;7.03;;;;;;;3.28;66.04;98945.63;4997322;28;20058;-63
2021/01/30 08:58:46;;;;;;;11.95;8.65;;;;;;;3.21;66.25;98949.59;4977655;28;20050;-63
2021/01/30 09:01:47;;;;;;;8.20;7.07;;;;;;;3.23;65.78;98944.59;5003522;28;20428;-63
2021/01/30 09:04:45;;;;;;;8.45;7.30;;;;;;;3.14;67.32;98940.91;4994665;28;20066;-63
2021/01/30 09:07:38;;;;;;;11.60;9.07;;;;;;;3.21;67.05;98948.75;4995647;28;20143;-63
2021/01/30 09:10:34;;;;;;;11.88;9.82;;;;;;;3.24;67.86;98942.66;4996102;28;20504;-63
2021/01/30 09:13:04;;;;;;;9.63;8.05;;;;;;;3.24;66.69;98942.66;4990681;28;20061;-63
2021/01/30 09:16:01;;;;;;;8.95;7.72;;;;;;;3.33;66.73;98940.03;4995697;28;20499;-63
2021/01/30 09:18:40;;;;;;;9.35;7.53;;;;;;;3.38;66.88;98939.91;4997336;28;20050;-63
2021/01/30 09:21:14;;;;;;;8.45;7.07;;;;;;;3.40;66.09;98938.50;4996524;28;20142;-63
2021/01/30 09:23:52;;;;;;;10.20;7.78;;;;;;;3.43;66.86;98937.09;4996040;28;20070;-63
2021/01/30 09:26:28;;;;;;;9.38;7.50;;;;;;;3.44;66.97;98942.28;4995597;28;20066;-65
2021/01/30 09:28:58;;;;;;;8.38;6.28;;;;;;;3.42;66.22;98943.69;4997332;28;20057;-65
2021/01/30 09:31:27;;;;;;;8.27;6.25;;;;;;;3.47;66.14;98956.56;4996688;28;20050;-65
2021/01/30 09:34:02;;;;;;;7.90;7.05;;;;;;;3.53;66.18;98961.66;4996765;28;20051;-65
2021/01/30 09:36:34;;;;;;;8.18;6.88;;;;;;;3.50;65.36;98951.25;4996247;28;20065;-65
2021/01/30 09:39:02;;;;;;;7.82;6.53;;;;;;;3.48;65.30;98947.16;4995723;28;20050;-65
2021/01/30 09:41:32;;;;;;;9.00;7.22;;;;;;;3.56;65.63;98947.28;4996079;28;20069;-65
2021/01/30 09:44:07;;;;;;;8.13;6.50;;;;;;;3.62;65.64;98948.81;4997813;28;20065;-65
2021/01/30 09:46:39;;;;;;;7.13;6.40;;;;;;;3.57;65.21;98948.09;4996569;28;20476;-65
2021/01/30 09:49:08;;;;;;;8.77;6.22;;;;;;;3.69;65.70;98933.81;4995479;28;20495;-65
2021/01/30 09:51:41;;;;;;;12.90;8.55;;;;;;;3.69;64.93;98934.63;4986095;28;20055;-65
2021/01/30 09:54:12;;;;;;;6.20;5.25;;;;;;;3.74;63.79;98933.69;4980505;28;20069;-65
2021/01/30 09:56:39;;;;;;;7.32;5.80;;;;;;;3.69;62.78;98931.88;4997111;28;20530;-65
2021/01/30 09:59:10;;;;;;;6.85;5.40;;;;;;;3.65;63.86;98928.94;5001997;28;20488;-66
2021/01/30 10:01:39;;;;;;;10.90;7.35;;;;;;;3.79;63.24;98925.34;4996097;28;20054;-65
2021/01/30 10:04:19;;;;;;;7.55;6.25;;;;;;;3.95;62.20;98928.56;4995304;28;20061;-65
2021/01/30 10:06:47;;;;;;;8.02;5.45;;;;;;;3.97;62.91;98940.09;4996594;28;20054;-65
2021/01/30 10:09:21;;;;;;;5.35;4.68;;;;;;;4.02;62.63;98938.06;4995970;28;20054;-65
2021/01/30 10:11:55;;;;;;;4.60;4.20;;;;;;;4.14;61.78;98943.06;4994242;28;20050;-65
2021/01/30 10:14:23;;;;;;;4.70;3.47;;;;;;;4.04;60.76;98944.06;4996051;28;20077;-65
2021/01/30 10:16:59;;;;;;;5.28;4.18;;;;;;;4.60;60.35;98930.13;4998687;28;20054;-65
2021/01/30 10:19:29;;;;;;;6.75;4.43;;;;;;;4.90;60.51;98930.53;4999241;28;20061;-65
2021/01/30 10:21:56;;;;;;;3.90;3.50;;;;;;;4.77;58.72;98938.53;4996361;28;20054;-65
2021/01/30 10:24:26;;;;;;;3.80;3.03;;;;;;;4.79;58.60;98936.28;5007190;28;20054;-64
2021/01/30 10:26:55;;;;;;;4.63;3.80;;;;;;;4.94;59.17;98937.03;5007086;28;20053;-65
2021/01/30 10:29:25;;;;;;;4.03;3.10;;;;;;;5.03;58.20;98935.13;4994839;28;20054;-65
2021/01/30 10:31:56;;;;;;;3.63;2.95;;;;;;;5.09;57.94;98925.59;4996682;28;20057;-65
2021/01/30 10:34:28;;;;;;;3.90;3.25;;;;;;;5.45;57.98;98922.69;4998977;28;20415;-65
2021/01/30 10:37:01;;;;;;;3.58;3.20;;;;;;;5.79;57.54;98915.66;4998477;28;20062;-65
2021/01/30 10:39:33;;;;;;;5.45;3.40;;;;;;;6.00;56.04;98907.59;5002205;28;20055;-65
2021/01/30 10:42:18;;;;;;;3.50;3.17;;;;;;;6.21;55.69;98904.22;4995530;28;20057;-65
2021/01/30 10:44:47;;;;;;;3.97;3.10;;;;;;;6.41;55.85;98900.00;4994013;28;20050;-65
2021/01/30 10:47:15;;;;;;;3.60;3.00;;;;;;;6.80;53.85;98898.16;4993247;28;20059;-65
2021/01/30 10:49:44;;;;;;;3.70;3.03;;;;;;;6.87;52.66;98891.00;4993834;28;20065;-65
2021/01/30 10:52:14;;;;;;;2.92;2.50;;;;;;;7.20;52.39;98887.66;4993642;28;20504;-65
2021/01/30 10:54:41;;;;;;;;;;;;;;;7.34;51.77;98883.88;4996374;28;20065;-65
2021/01/30 10:57:13;;;;;;;3.53;2.35;;;;;;;8.14;49.90;98881.94;4993891;28;19929;-65
2021/01/30 10:59:59;;;;;;;4.07;2.50;;;;;;;8.14;49.40;98876.38;4996073;28;20142;-65
2021/01/30 11:02:43;;;;;;;3.28;2.60;;;;;;;8.81;49.35;98873.72;4995019;28;20053;-65
2021/01/30 11:05:23;;;;;;;4.15;3.63;;;;;;;10.27;45.98;98876.13;4994602;28;20068;-65
2021/01/30 11:07:52;;;;;;;7.10;4.18;;;;;;;10.62;43.24;98881.13;4996131;28;20062;-65
2021/01/30 11:10:26;;;;;;;10.70;5.80;;;;;;;9.68;44.43;98891.34;4994620;28;20427;-65
2021/01/30 11:12:54;;;;;;;9.23;4.78;;;;;;;8.82;46.82;98889.25;4993415;28;20054;-65
2021/01/30 11:15:24;;;;;;;13.55;6.97;;;;;;;8.59;47.21;98885.19;4992874;28;20059;-65
2021/01/30 11:18:12;;;;;;;4.03;3.00;;;;;;;8.29;47.41;98882.47;4995179;28;20054;-65
2021/01/30 11:20:42;;;;;;;13.18;7.15;;;;;;;7.47;48.25;98888.34;4992973;28;20058;-65
2021/01/30 11:23:11;;;;;;;4.43;3.25;;;;;;;7.49;49.60;98886.06;4994632;28;20065;-65
2021/01/30 11:25:41;;;;;;;7.63;4.18;;;;;;;7.32;50.42;98876.69;4993909;28;20069;-65
2021/01/30 11:28:08;;;;;;;9.07;5.28;;;;;;;7.28;49.79;98878.50;4993692;28;20058;-65
2021/01/30 11:30:36;;;;;;;26.60;10.77;;;;;;;6.86;50.90;98885.78;4990599;28;20053;-65
2021/01/30 11:33:08;;;;;;;18.13;8.70;;;;;;;6.74;50.65;98875.41;4996413;28;20057;-65
2021/01/30 11:35:38;;;;;;;7.68;5.45;;;;;;;6.71;51.78;98878.81;4999771;28;20058;-65
2021/01/30 11:38:07;;;;;;;4.40;3.63;;;;;;;6.46;51.83;98866.63;4992392;28;20046;-65
2021/01/30 11:40:34;;;;;;;4.88;3.72;;;;;;;6.45;53.00;98868.59;4995244;28;20504;-65
2021/01/30 11:43:01;;;;;;;3.47;2.65;;;;;;;6.34;52.50;98855.41;4993872;28;20055;-65
2021/01/30 11:45:28;;;;;;;3.45;2.92;;;;;;;6.23;51.90;98857.69;4995596;28;20062;-65
2021/01/30 11:47:55;;;;;;;2.90;2.30;;;;;;;6.39;52.48;98852.50;4993117;28;20046;-65
2021/01/30 11:50:22;;;;;;;4.07;3.00;;;;;;;6.64;51.65;98850.84;4994763;28;20050;-65
2021/01/30 11:52:49;;;;;;;3.70;2.45;;;;;;;7.31;50.47;98844.59;4993197;28;20050;-65
2021/01/30 11:55:20;;;;;;;3.00;2.45;;;;;;;7.65;49.68;98842.81;4996058;28;20061;-65
2021/01/30 11:57:47;;;;;;;3.88;2.20;;;;;;;7.72;50.30;98847.81;4993631;28;20053;-65
2021/01/30 12:00:15;;;;;;;3.22;1.80;;;;;;;7.57;48.01;98834.53;4994035;28;20062;-65
2021/01/30 12:02:43;;;;;;;2.38;1.58;;;;;;;6.96;49.09;98840.34;4995532;28;20053;-65